createdAt,value
2018-06-03T00:01:53.195Z,3.17
2018-06-03T00:04:22.032Z,3.67
2018-06-03T00:06:50.935Z,3.03
2018-06-03T00:09:19.831Z,3.40
2018-06-03T00:11:48.694Z,2.87
2018-06-03T00:14:19.677Z,2.87
2018-06-03T00:16:50.502Z,3.13
2018-06-03T00:19:19.370Z,3.50
2018-06-03T00:21:50.115Z,2.93
2018-06-03T00:24:21.079Z,2.90
2018-06-03T00:26:49.979Z,3.37
2018-06-03T00:29:18.867Z,3.43
2018-06-03T00:31:47.770Z,3.50
2018-06-03T00:34:16.667Z,2.70
2018-06-03T00:36:45.591Z,3.40
2018-06-03T00:39:14.539Z,2.60
2018-06-03T00:41:43.493Z,2.60
2018-06-03T00:44:12.444Z,3.20
2018-06-03T00:46:41.416Z,3.13
2018-06-03T00:49:10.407Z,3.37
2018-06-03T00:51:39.398Z,2.70
2018-06-03T00:54:08.422Z,2.77
2018-06-03T00:56:43.307Z,3.17
2018-06-03T00:59:12.168Z,3.60
2018-06-03T01:01:43.091Z,2.63
2018-06-03T01:04:11.956Z,3.40
2018-06-03T01:06:40.814Z,3.73
2018-06-03T01:09:09.693Z,2.90
2018-06-03T01:11:38.574Z,3.00
2018-06-03T01:14:07.474Z,3.27
2018-06-03T01:16:36.384Z,2.77
2018-06-03T01:19:05.322Z,2.90
2018-06-03T01:21:36.415Z,3.07
2018-06-03T01:24:05.398Z,3.50
2018-06-03T01:26:34.421Z,2.87
2018-06-03T01:29:03.507Z,3.17
2018-06-03T01:31:32.590Z,3.07
2018-06-03T01:34:01.691Z,3.20
2018-06-03T01:36:30.787Z,2.90
2018-06-03T01:38:59.892Z,2.90
2018-06-03T01:41:28.983Z,3.90
2018-06-03T01:43:58.087Z,2.90
2018-06-03T01:46:27.186Z,3.23
2018-06-03T01:48:56.283Z,3.10
2018-06-03T01:51:25.375Z,3.23
2018-06-03T01:53:54.477Z,2.83
2018-06-03T01:56:23.575Z,3.50
2018-06-03T01:58:56.683Z,2.97
2018-06-03T02:01:29.987Z,3.40
2018-06-03T02:04:03.151Z,2.70
2018-06-03T02:06:31.963Z,2.93
2018-06-03T02:09:03.059Z,2.93
2018-06-03T02:11:34.146Z,3.10
2018-06-03T02:14:02.974Z,3.03
2018-06-03T02:16:33.109Z,3.23
2018-06-03T02:19:01.937Z,2.90
2018-06-03T02:21:32.991Z,3.37
2018-06-03T02:24:01.830Z,3.10
2018-06-03T02:26:30.659Z,3.13
2018-06-03T02:28:59.494Z,3.00
2018-06-03T02:31:28.331Z,2.83
2018-06-03T02:33:57.184Z,3.67
2018-06-03T02:36:27.479Z,3.13
2018-06-03T02:38:56.314Z,3.27
2018-06-03T02:41:29.683Z,2.70
2018-06-03T02:44:00.662Z,3.57
2018-06-03T02:46:29.522Z,3.10
2018-06-03T02:48:58.382Z,2.97
2018-06-03T02:51:27.235Z,3.20
2018-06-03T02:53:56.098Z,3.10
2018-06-03T02:56:24.955Z,3.30
2018-06-03T02:58:57.990Z,2.97
2018-06-03T03:01:28.939Z,3.37
2018-06-03T03:03:57.818Z,3.80
2018-06-03T03:06:26.683Z,4.50
2018-06-03T03:08:55.568Z,3.47
2018-06-03T03:11:24.451Z,3.43
2018-06-03T03:13:55.550Z,3.87
2018-06-03T03:16:26.233Z,3.40
2018-06-03T03:18:55.110Z,3.40
2018-06-03T03:21:24.003Z,3.53
2018-06-03T03:23:52.891Z,3.40
2018-06-03T03:26:21.792Z,3.37
2018-06-03T03:28:50.682Z,3.67
2018-06-03T03:31:21.747Z,3.13
2018-06-03T03:33:50.634Z,3.50
2018-06-03T03:36:19.538Z,3.27
2018-06-03T03:38:48.435Z,3.80
2018-06-03T03:41:19.335Z,4.40
2018-06-03T03:43:48.233Z,3.80
2018-06-03T03:46:17.146Z,3.50
2018-06-03T03:48:46.055Z,2.50
2018-06-03T03:51:14.972Z,3.67
2018-06-03T03:53:43.890Z,3.50
2018-06-03T03:56:12.814Z,3.00
2018-06-03T03:58:41.743Z,3.10
2018-06-03T04:01:10.670Z,3.60
2018-06-03T04:03:39.590Z,3.20
2018-06-03T04:06:08.518Z,2.83
2018-06-03T04:08:37.445Z,3.00
2018-06-03T04:11:06.374Z,3.13
2018-06-03T04:13:35.291Z,3.33
2018-06-03T04:16:04.228Z,2.27
2018-06-03T04:18:33.159Z,3.10
2018-06-03T04:21:02.106Z,2.47
2018-06-03T04:23:31.029Z,2.10
2018-06-03T04:25:59.974Z,2.90
2018-06-03T04:28:28.925Z,2.47
2018-06-03T04:30:58.014Z,2.47
2018-06-03T04:33:27.021Z,2.30
2018-06-03T04:35:56.084Z,2.50
2018-06-03T04:38:25.129Z,2.70
2018-06-03T04:40:54.196Z,2.67
2018-06-03T04:43:23.251Z,2.40
2018-06-03T04:45:52.301Z,2.97
2018-06-03T04:48:21.355Z,2.37
2018-06-03T04:50:50.430Z,2.57
2018-06-03T04:53:19.494Z,2.40
2018-06-03T04:55:48.597Z,2.23
2018-06-03T04:58:17.690Z,2.07
2018-06-03T05:00:46.785Z,2.10
2018-06-03T05:03:15.882Z,2.47
2018-06-03T05:05:44.963Z,2.40
2018-06-03T05:08:14.009Z,2.23
2018-06-03T05:10:43.078Z,2.70
2018-06-03T05:13:12.106Z,1.93
2018-06-03T05:15:41.142Z,1.80
2018-06-03T05:18:10.206Z,2.17
2018-06-03T05:20:39.273Z,2.07
2018-06-03T05:23:08.341Z,2.00
2018-06-03T05:25:37.414Z,2.47
2018-06-03T05:28:06.491Z,2.50
2018-06-03T05:30:35.554Z,2.33
2018-06-03T05:33:04.594Z,2.10
2018-06-03T05:35:33.638Z,1.80
2018-06-03T05:38:02.724Z,2.30
2018-06-03T05:40:31.820Z,1.80
2018-06-03T05:43:00.906Z,2.20
2018-06-03T05:45:29.967Z,1.97
2018-06-03T05:47:58.978Z,2.10
2018-06-03T05:50:28.070Z,2.30
2018-06-03T05:52:57.168Z,1.67
2018-06-03T05:55:26.226Z,1.60
2018-06-03T05:57:55.279Z,1.90
2018-06-03T06:00:24.290Z,1.80
2018-06-03T06:02:53.362Z,2.10
2018-06-03T06:05:22.426Z,1.90
2018-06-03T06:07:51.523Z,1.93
2018-06-03T06:10:20.598Z,2.20
2018-06-03T06:12:49.708Z,2.30
2018-06-03T06:15:18.788Z,1.57
2018-06-03T06:17:47.879Z,2.13
2018-06-03T06:20:16.973Z,1.70
2018-06-03T06:22:46.066Z,2.10
2018-06-03T06:25:15.159Z,1.97
2018-06-03T06:27:44.263Z,2.30
2018-06-03T06:30:13.311Z,2.17
2018-06-03T06:32:42.346Z,2.40
2018-06-03T06:35:11.363Z,2.43
2018-06-03T06:37:40.366Z,2.80
2018-06-03T06:40:09.373Z,2.93
2018-06-03T06:42:38.355Z,2.50
2018-06-03T06:45:08.363Z,2.63
2018-06-03T06:47:37.357Z,2.40
2018-06-03T06:50:07.938Z,2.40
2018-06-03T06:52:36.881Z,2.00
2018-06-03T06:55:05.857Z,2.37
2018-06-03T06:57:34.851Z,2.10
2018-06-03T07:00:31.194Z,2.03
2018-06-03T07:02:59.206Z,2.40
2018-06-03T07:05:27.207Z,2.70
2018-06-03T07:07:55.223Z,2.63
2018-06-03T07:10:23.231Z,2.37
2018-06-03T07:12:51.271Z,1.70
2018-06-03T07:15:19.356Z,2.40
2018-06-03T07:17:47.526Z,2.50
2018-06-03T07:20:15.556Z,2.67
2018-06-03T07:22:43.590Z,2.30
2018-06-03T07:25:11.611Z,2.87
2018-06-03T07:27:41.382Z,2.13
2018-06-03T07:30:09.388Z,2.43
2018-06-03T07:32:37.429Z,2.03
2018-06-03T07:35:05.441Z,2.30
2018-06-03T07:37:33.464Z,2.40
2018-06-03T07:40:01.472Z,2.60
2018-06-03T07:42:29.551Z,2.20
2018-06-03T07:44:57.566Z,2.30
2018-06-03T07:47:25.597Z,2.20
2018-06-03T07:49:53.672Z,2.47
2018-06-03T07:52:21.684Z,2.30
2018-06-03T07:55:01.441Z,2.50
2018-06-03T07:57:29.475Z,1.93
2018-06-03T07:59:57.494Z,1.53
2018-06-03T08:02:25.519Z,1.70
2018-06-03T08:04:53.559Z,1.80
2018-06-03T08:07:21.746Z,1.73
2018-06-03T08:10:00.867Z,2.00
2018-06-03T08:12:42.901Z,2.10
2018-06-03T08:15:17.993Z,1.33
2018-06-03T08:18:02.004Z,2.07
2018-06-03T08:20:30.134Z,1.90
2018-06-03T08:22:58.262Z,1.40
2018-06-03T08:25:26.324Z,1.57
2018-06-03T08:27:54.434Z,2.00
2018-06-03T08:30:26.593Z,1.90
2018-06-03T08:32:54.752Z,1.93
2018-06-03T08:35:22.905Z,1.67
2018-06-03T08:37:51.141Z,1.53
2018-06-03T08:40:19.248Z,1.60
2018-06-03T08:42:47.445Z,1.33
2018-06-03T08:45:15.592Z,1.57
2018-06-03T08:47:43.848Z,1.50
2018-06-03T08:50:11.935Z,1.60
2018-06-03T08:52:39.977Z,1.40
2018-06-03T08:55:08.112Z,1.60
2018-06-03T08:57:36.204Z,1.90
2018-06-03T09:00:04.418Z,1.33
2018-06-03T09:02:32.540Z,1.70
2018-06-03T09:05:00.629Z,1.50
2018-06-03T09:07:28.658Z,1.83
2018-06-03T09:09:56.693Z,1.93
2018-06-03T09:12:24.747Z,1.77
2018-06-03T09:14:52.837Z,1.40
2018-06-03T09:17:21.046Z,2.30
2018-06-03T09:19:49.184Z,2.03
2018-06-03T09:22:17.311Z,2.03
2018-06-03T09:24:45.525Z,2.00
2018-06-03T09:27:13.721Z,1.90
2018-06-03T09:29:41.963Z,1.80
2018-06-03T09:32:10.103Z,2.13
2018-06-03T09:34:38.430Z,2.20
2018-06-03T09:37:06.748Z,2.47
2018-06-03T09:39:34.971Z,2.00
2018-06-03T09:42:03.583Z,2.30
2018-06-03T09:44:31.901Z,2.10
2018-06-03T09:47:00.140Z,1.80
2018-06-03T09:49:28.227Z,1.80
2018-06-03T09:51:56.322Z,1.57
2018-06-03T09:54:24.442Z,2.20
2018-06-03T09:56:52.726Z,1.70
2018-06-03T09:59:20.890Z,1.70
2018-06-03T10:01:48.962Z,1.50
2018-06-03T10:04:17.033Z,2.17
2018-06-03T10:06:45.102Z,1.93
2018-06-03T10:09:13.181Z,2.73
2018-06-03T10:11:41.389Z,2.00
2018-06-03T10:14:09.485Z,2.30
2018-06-03T10:16:37.558Z,1.97
2018-06-03T10:19:05.627Z,1.83
2018-06-03T10:21:33.855Z,1.97
2018-06-03T10:24:07.485Z,2.13
2018-06-03T10:26:35.736Z,1.63
2018-06-03T10:29:03.830Z,1.40
2018-06-03T10:31:31.910Z,1.50
2018-06-03T10:34:00.230Z,1.30
2018-06-03T10:36:28.471Z,1.27
2018-06-03T10:38:56.574Z,0.90
2018-06-03T10:41:26.997Z,1.40
2018-06-03T10:43:55.161Z,1.10
2018-06-03T10:46:23.214Z,1.40
2018-06-03T10:48:51.276Z,1.97
2018-06-03T10:51:19.347Z,1.90
2018-06-03T10:53:47.399Z,1.73
2018-06-03T10:56:15.798Z,2.07
2018-06-03T10:58:43.870Z,1.90
2018-06-03T11:01:11.993Z,1.90
2018-06-03T11:03:40.082Z,2.40
2018-06-03T11:06:08.209Z,2.00
2018-06-03T11:08:36.409Z,2.60
2018-06-03T11:11:06.582Z,1.70
2018-06-03T11:13:34.661Z,1.90
2018-06-03T11:16:02.754Z,2.43
2018-06-03T11:18:30.896Z,1.60
2018-06-03T11:20:58.957Z,2.50
2018-06-03T11:23:27.110Z,1.90
2018-06-03T11:25:55.345Z,2.00
2018-06-03T11:28:23.441Z,2.10
2018-06-03T11:30:51.589Z,1.77
2018-06-03T11:33:19.795Z,1.90
2018-06-03T11:35:47.904Z,2.00
2018-06-03T11:38:16.031Z,1.97
2018-06-03T11:40:44.189Z,2.07
2018-06-03T11:43:12.308Z,1.87
2018-06-03T11:45:40.383Z,2.00
2018-06-03T11:48:08.541Z,1.53
2018-06-03T11:50:36.770Z,1.70
2018-06-03T11:53:04.979Z,1.93
2018-06-03T11:55:33.307Z,1.90
2018-06-03T11:58:35.447Z,1.50
2018-06-03T12:01:03.625Z,1.37
2018-06-03T12:03:31.652Z,2.07
2018-06-03T12:05:59.693Z,1.10
2018-06-03T12:08:27.767Z,1.00
2018-06-03T12:11:05.189Z,1.23
2018-06-03T12:13:33.281Z,1.20
2018-06-03T12:16:01.312Z,1.80
2018-06-03T12:18:29.400Z,1.70
2018-06-03T12:20:58.517Z,1.77
2018-06-03T12:23:26.584Z,1.20
2018-06-03T12:25:54.631Z,1.67
2018-06-03T12:28:22.815Z,1.63
2018-06-03T12:30:51.319Z,1.13
2018-06-03T12:33:20.371Z,1.87
2018-06-03T12:35:49.308Z,1.40
2018-06-03T12:38:17.618Z,1.27
2018-06-03T12:40:45.750Z,1.43
2018-06-03T12:43:14.401Z,1.40
2018-06-03T12:45:43.370Z,2.20
2018-06-03T12:48:11.754Z,2.50
2018-06-03T12:50:39.766Z,1.57
2018-06-03T12:53:07.776Z,1.30
2018-06-03T12:55:35.854Z,1.70
2018-06-03T12:58:04.053Z,1.60
2018-06-03T13:00:32.153Z,1.90
2018-06-03T13:03:00.259Z,2.00
2018-06-03T13:05:28.453Z,1.87
2018-06-03T13:07:56.673Z,1.97
2018-06-03T13:10:24.966Z,1.40
2018-06-03T13:12:53.075Z,1.40
2018-06-03T13:15:21.183Z,1.13
2018-06-03T13:17:49.261Z,1.47
2018-06-03T13:20:17.423Z,1.70
2018-06-03T13:22:45.472Z,1.67
2018-06-03T13:25:13.668Z,1.50
2018-06-03T13:27:41.682Z,1.23
2018-06-03T13:30:09.728Z,1.10
2018-06-03T13:32:37.886Z,1.10
2018-06-03T13:35:06.276Z,1.50
2018-06-03T13:37:34.477Z,1.10
2018-06-03T13:40:02.690Z,1.10
2018-06-03T13:42:30.904Z,1.53
2018-06-03T13:44:58.919Z,1.10
2018-06-03T13:47:26.952Z,1.30
2018-06-03T13:49:54.996Z,1.30
2018-06-03T13:52:23.018Z,1.30
2018-06-03T13:54:51.491Z,1.17
2018-06-03T13:57:19.520Z,1.10
2018-06-03T13:59:47.559Z,1.40
2018-06-03T14:02:15.597Z,1.10
2018-06-03T14:04:43.649Z,1.30
2018-06-03T14:07:11.660Z,1.07
2018-06-03T14:09:39.723Z,1.30
2018-06-03T14:12:07.863Z,1.40
2018-06-03T14:14:35.919Z,1.20
2018-06-03T14:17:03.929Z,1.27
2018-06-03T14:19:32.085Z,1.20
2018-06-03T14:22:00.006Z,1.10
2018-06-03T14:24:28.034Z,1.50
2018-06-03T14:26:56.062Z,1.43
2018-06-03T14:29:24.096Z,1.60
2018-06-03T14:31:52.167Z,1.50
2018-06-03T14:34:20.147Z,1.37
2018-06-03T14:36:48.167Z,1.53
2018-06-03T14:39:16.179Z,1.67
2018-06-03T14:41:44.235Z,1.30
2018-06-03T14:44:12.279Z,1.33
2018-06-03T14:46:40.308Z,1.30
2018-06-03T14:49:08.340Z,1.43
2018-06-03T14:51:36.371Z,0.90
2018-06-03T14:54:04.423Z,1.40
2018-06-03T14:56:33.519Z,1.60
2018-06-03T14:59:01.496Z,1.50
2018-06-03T15:01:29.557Z,1.13
2018-06-03T15:03:57.600Z,1.43
2018-06-03T15:06:25.651Z,1.40
2018-06-03T15:08:53.659Z,1.60
2018-06-03T15:11:21.799Z,1.10
2018-06-03T15:13:49.811Z,1.23
2018-06-03T15:16:17.860Z,1.17
2018-06-03T15:18:45.909Z,1.33
2018-06-03T15:21:14.004Z,1.50
2018-06-03T15:23:42.034Z,1.20
2018-06-03T15:26:10.103Z,1.40
2018-06-03T15:28:38.128Z,1.67
2018-06-03T15:31:09.287Z,1.37
2018-06-03T15:33:37.348Z,1.00
2018-06-03T15:36:05.384Z,1.50
2018-06-03T15:38:33.410Z,0.97
2018-06-03T15:41:01.461Z,1.20
2018-06-03T15:43:29.573Z,1.33
2018-06-03T15:45:57.615Z,1.17
2018-06-03T15:48:25.688Z,1.53
2018-06-03T15:50:54.787Z,1.53
2018-06-03T15:53:22.834Z,1.20
2018-06-03T15:55:50.989Z,1.20
2018-06-03T15:58:19.952Z,1.57
2018-06-03T16:00:48.247Z,1.67
2018-06-03T16:03:16.391Z,1.20
2018-06-03T16:05:44.516Z,1.70
2018-06-03T16:08:13.133Z,1.27
2018-06-03T16:10:41.454Z,1.37
2018-06-03T16:13:09.636Z,1.20
2018-06-03T16:15:37.732Z,1.60
2018-06-03T16:18:05.840Z,1.43
2018-06-03T16:20:34.034Z,1.27
2018-06-03T16:23:02.081Z,1.30
2018-06-03T16:25:30.129Z,1.30
2018-06-03T16:27:58.153Z,1.70
2018-06-03T16:30:26.186Z,1.77
2018-06-03T16:32:54.219Z,1.30
2018-06-03T16:35:22.247Z,5.93
2018-06-03T16:37:50.306Z,1.83
2018-06-03T16:40:18.376Z,2.27
2018-06-03T16:42:46.557Z,2.50
2018-06-03T16:45:14.669Z,1.43
2018-06-03T16:47:42.720Z,1.70
2018-06-03T16:50:10.816Z,1.77
2018-06-03T16:52:38.912Z,1.80
2018-06-03T16:55:07.024Z,1.57
2018-06-03T16:57:35.320Z,2.00
2018-06-03T17:00:05.033Z,1.90
2018-06-03T17:02:34.850Z,2.43
2018-06-03T17:05:03.726Z,1.60
2018-06-03T17:07:31.981Z,1.30
2018-06-03T17:10:01.317Z,1.70
2018-06-03T17:12:32.867Z,1.90
2018-06-03T17:15:01.333Z,1.40
2018-06-03T17:17:31.227Z,1.70
2018-06-03T17:20:00.736Z,1.57
2018-06-03T17:25:18.488Z,1.43
2018-06-03T17:27:47.061Z,2.10
2018-06-03T17:30:17.812Z,1.60
2018-06-03T17:32:50.139Z,2.00
2018-06-03T17:35:22.068Z,1.73
2018-06-03T17:37:51.365Z,1.60
2018-06-03T17:40:25.128Z,2.00
2018-06-03T17:43:02.104Z,2.20
2018-06-03T17:45:46.408Z,1.33
2018-06-03T17:48:17.421Z,1.70
2018-06-03T17:50:49.906Z,1.53
2018-06-03T17:53:22.247Z,1.90
